Time;durP1;ratioP1;P1;durP2;ratioP2;P2;SDS_P1;SDS_P2;PMS_P1;PMS_P2;Temp;Humidity;BMP_temperature;BMP_pressure;BME280_temperature;BME280_humidity;BME280_pressure;Samples;Min_cycle;Max_cycle;Signal;HPM_P1;HPM_P2
2022/10/28 00:01:16;;;;;;;23.60;11.07;;;15.30;99.90;;;;;;5074065;28;20473;-79
2022/10/28 00:03:47;;;;;;;17.17;11.02;;;15.40;99.90;;;;;;5070898;28;20033;-79
2022/10/28 00:06:25;;;;;;;20.90;11.75;;;15.40;99.90;;;;;;5068804;28;20099;-79
2022/10/28 00:08:52;;;;;;;16.33;10.90;;;15.50;99.90;;;;;;5084365;28;20044;-79
2022/10/28 00:11:20;;;;;;;17.48;11.18;;;15.50;99.90;;;;;;5076793;28;20549;-79
2022/10/28 00:13:46;;;;;;;19.05;11.15;;;15.50;99.90;;;;;;5075079;28;20045;-79
2022/10/28 00:16:17;;;;;;;21.08;10.52;;;15.50;99.90;;;;;;5064501;28;20083;-79
2022/10/28 00:18:44;;;;;;;18.77;11.55;;;15.60;99.90;;;;;;5059543;28;20075;-79
2022/10/28 00:21:15;;;;;;;16.40;10.32;;;15.60;99.90;;;;;;5049847;28;20037;-79
2022/10/28 00:23:41;;;;;;;19.48;11.32;;;15.60;99.90;;;;;;5058919;28;20040;-79
2022/10/28 00:26:11;;;;;;;18.05;11.68;;;15.60;99.90;;;;;;5075309;28;20057;-78
2022/10/28 00:28:55;;;;;;;16.63;10.52;;;15.60;99.90;;;;;;5057067;28;20513;-79
2022/10/28 00:31:22;;;;;;;17.50;11.40;;;15.60;99.90;;;;;;5061875;28;20043;-79
2022/10/28 00:33:48;;;;;;;21.98;11.82;;;15.60;99.90;;;;;;5080716;28;20040;-79
2022/10/28 00:36:22;;;;;;;20.90;11.70;;;15.60;99.90;;;;;;5075406;28;20043;-79
2022/10/28 00:38:50;;;;;;;17.25;10.98;;;15.60;99.90;;;;;;5083172;28;20125;-79
2022/10/28 00:41:19;;;;;;;18.33;11.25;;;15.60;99.90;;;;;;5049229;28;20080;-79
2022/10/28 00:43:48;;;;;;;19.40;10.88;;;15.60;99.90;;;;;;5066478;28;20059;-79
2022/10/28 00:46:34;;;;;;;18.25;11.32;;;15.50;99.90;;;;;;5071326;28;20048;-79
2022/10/28 00:49:11;;;;;;;18.23;11.18;;;15.50;99.90;;;;;;5075373;28;20606;-79
2022/10/28 00:51:37;;;;;;;21.50;11.65;;;15.50;99.90;;;;;;5060088;28;20123;-79
2022/10/28 00:54:04;;;;;;;18.70;11.15;;;15.50;99.90;;;;;;5072669;28;20133;-79
2022/10/28 00:56:35;;;;;;;17.23;11.15;;;15.50;99.90;;;;;;5068885;28;20035;-78
2022/10/28 00:59:05;;;;;;;15.77;10.80;;;15.50;99.90;;;;;;5067669;28;20059;-79
2022/10/28 01:01:31;;;;;;;19.33;11.85;;;15.50;99.90;;;;;;5050264;28;20171;-78
2022/10/28 01:03:59;;;;;;;16.05;10.77;;;15.50;99.90;;;;;;5053845;28;20045;-79
2022/10/28 01:06:27;;;;;;;16.48;11.30;;;15.40;99.90;;;;;;5066329;28;20123;-79
2022/10/28 01:08:52;;;;;;;19.77;11.32;;;15.40;99.90;;;;;;5069556;28;20051;-79
2022/10/28 01:11:36;;;;;;;19.60;11.15;;;15.40;99.90;;;;;;5081457;28;20040;-79
2022/10/28 01:14:17;;;;;;;15.63;11.07;;;15.40;99.90;;;;;;5056528;28;20158;-79
2022/10/28 01:17:18;;;;;;;25.13;11.93;;;15.40;99.90;;;;;;5063519;28;20051;-79
2022/10/28 01:20:05;;;;;;;15.52;10.85;;;15.30;99.90;;;;;;4976142;28;20173;-79
2022/10/28 01:22:33;;;;;;;;;;;15.30;99.90;;;;;;5066094;28;20591;-79
2022/10/28 01:25:21;;;;;;;16.17;10.63;;;15.20;99.90;;;;;;5074219;28;19920;-79
2022/10/28 01:27:54;;;;;;;;;;;15.20;99.90;;;;;;5054845;28;20056;-79
2022/10/28 01:30:26;;;;;;;18.75;11.93;;;15.20;99.90;;;;;;5078444;28;20359;-78
2022/10/28 01:33:01;;;;;;;18.67;11.50;;;15.10;99.90;;;;;;5085717;28;20541;-79
2022/10/28 01:35:37;;;;;;;18.92;11.95;;;15.10;99.90;;;;;;5074832;28;20410;-79
2022/10/28 01:38:29;;;;;;;17.00;11.25;;;15.10;99.90;;;;;;5080591;28;20040;-79
2022/10/28 01:41:08;;;;;;;16.25;11.15;;;15.10;99.90;;;;;;5048256;28;20056;-79
2022/10/28 01:44:03;;;;;;;20.00;10.80;;;15.10;99.90;;;;;;5050913;28;20353;-79
2022/10/28 01:46:37;;;;;;;17.98;11.02;;;15.00;99.90;;;;;;5076233;28;20040;-79
2022/10/28 01:49:13;;;;;;;24.17;12.10;;;15.00;99.90;;;;;;5076848;28;20044;-78
2022/10/28 01:51:47;;;;;;;17.60;12.15;;;14.90;99.90;;;;;;5076620;28;20040;-79
2022/10/28 01:54:17;;;;;;;19.50;11.65;;;14.90;99.90;;;;;;5065369;28;20068;-79
2022/10/28 01:56:45;;;;;;;16.83;11.80;;;15.00;99.90;;;;;;5052512;28;20053;-79
2022/10/28 01:59:21;;;;;;;16.85;11.13;;;14.90;99.90;;;;;;5074962;28;20044;-79
2022/10/28 02:01:46;;;;;;;19.75;12.50;;;15.00;99.90;;;;;;5080256;28;20036;-79
2022/10/28 02:04:12;;;;;;;20.70;12.45;;;15.00;99.90;;;;;;5057280;28;20044;-79
2022/10/28 02:06:40;;;;;;;20.23;12.15;;;14.90;99.90;;;;;;5077508;28;20037;-79
2022/10/28 02:09:12;;;;;;;;;;;14.90;99.90;;;;;;5076045;28;20101;-79
2022/10/28 02:12:33;;;;;;;20.30;11.57;;;14.90;99.90;;;;;;5071097;28;20360;-79
2022/10/28 02:15:04;;;;;;;17.52;11.70;;;14.90;99.90;;;;;;4979279;28;20379;-79
2022/10/28 02:17:52;;;;;;;21.52;11.90;;;14.90;99.90;;;;;;5033247;28;20091;-79
2022/10/28 02:20:48;;;;;;;18.30;11.38;;;14.90;99.90;;;;;;5051192;28;20118;-78
2022/10/28 02:23:32;;;;;;;16.98;11.05;;;14.90;99.90;;;;;;5076524;28;20496;-78
2022/10/28 02:26:06;;;;;;;17.15;11.32;;;14.90;99.90;;;;;;5059304;28;20094;-78
2022/10/28 02:29:00;;;;;;;16.67;10.95;;;14.90;99.90;;;;;;5082617;28;20696;-79
2022/10/28 02:31:41;;;;;;;19.15;11.25;;;14.90;99.90;;;;;;5056607;28;20526;-79
2022/10/28 02:34:16;;;;;;;16.90;10.98;;;14.90;99.90;;;;;;5065758;28;20047;-81
2022/10/28 02:36:47;;;;;;;18.45;11.25;;;14.90;99.90;;;;;;5065331;28;20089;-79
2022/10/28 02:39:15;;;;;;;18.15;11.40;;;14.90;99.90;;;;;;5087844;28;20039;-78
2022/10/28 02:41:53;;;;;;;18.00;11.48;;;14.90;99.90;;;;;;5079161;28;20048;-79
2022/10/28 02:44:27;;;;;;;20.80;11.55;;;14.90;99.90;;;;;;5074010;28;20076;-79
2022/10/28 02:46:56;;;;;;;19.40;11.57;;;14.90;99.90;;;;;;5059555;28;20045;-79
2022/10/28 02:49:23;;;;;;;21.10;11.75;;;14.90;99.90;;;;;;5068901;28;20032;-79
2022/10/28 02:51:59;;;;;;;15.68;10.80;;;14.90;99.90;;;;;;5081444;28;20048;-80
2022/10/28 02:54:41;;;;;;;17.83;11.45;;;14.90;99.90;;;;;;5085097;28;20036;-79
2022/10/28 02:57:20;;;;;;;20.58;11.43;;;14.80;99.90;;;;;;5082335;28;20071;-79
2022/10/28 03:00:17;;;;;;;17.70;11.25;;;14.80;99.90;;;;;;5079043;28;20120;-78
2022/10/28 03:02:42;;;;;;;18.73;10.88;;;14.80;99.90;;;;;;5048624;28;20051;-79
2022/10/28 03:05:09;;;;;;;21.98;11.77;;;14.70;99.90;;;;;;5075727;28;20044;-79
2022/10/28 03:07:34;;;;;;;16.65;10.43;;;14.70;99.90;;;;;;5064491;28;20044;-79
2022/10/28 03:10:00;;;;;;;16.67;11.10;;;14.70;99.90;;;;;;5082537;28;20206;-79
2022/10/28 03:12:26;;;;;;;18.98;10.88;;;14.60;99.90;;;;;;5055672;28;20154;-79
2022/10/28 03:14:51;;;;;;;18.15;10.50;;;14.60;99.90;;;;;;5056394;28;20045;-79
2022/10/28 03:17:17;;;;;;;17.10;11.25;;;14.50;99.90;;;;;;5065282;28;20119;-79
2022/10/28 03:19:42;;;;;;;17.48;11.73;;;14.50;99.90;;;;;;5069921;28;20028;-79
2022/10/28 03:22:08;;;;;;;19.30;11.25;;;14.40;99.90;;;;;;5068184;28;20044;-79
2022/10/28 03:24:33;;;;;;;16.35;11.52;;;14.40;99.90;;;;;;5066480;28;20384;-79
2022/10/28 03:26:59;;;;;;;17.25;11.18;;;14.40;99.90;;;;;;5076990;28;20836;-80
2022/10/28 03:29:25;;;;;;;14.85;11.27;;;14.30;99.90;;;;;;5058992;28;20059;-80
2022/10/28 03:31:50;;;;;;;14.77;10.88;;;14.20;99.90;;;;;;5063252;28;20068;-79
2022/10/28 03:34:16;;;;;;;16.27;10.50;;;14.30;99.90;;;;;;5079820;28;20048;-79
2022/10/28 03:36:42;;;;;;;17.90;11.45;;;14.20;99.90;;;;;;5049899;28;20040;-79
2022/10/28 03:39:07;;;;;;;20.15;11.70;;;14.20;99.90;;;;;;5061186;28;20048;-79
2022/10/28 03:41:33;;;;;;;17.55;12.18;;;14.20;99.90;;;;;;5075537;28;20072;-78
2022/10/28 03:43:59;;;;;;;19.80;11.05;;;14.20;99.90;;;;;;5051927;28;20044;-79
2022/10/28 03:46:24;;;;;;;16.45;11.45;;;14.20;99.90;;;;;;5080302;28;20044;-79
2022/10/28 03:48:50;;;;;;;18.65;11.85;;;14.10;99.90;;;;;;5055841;28;20055;-78
2022/10/28 03:51:16;;;;;;;15.48;11.02;;;14.10;99.90;;;;;;5056948;28;20047;-78
2022/10/28 03:53:41;;;;;;;15.32;10.90;;;14.10;99.90;;;;;;5092358;28;20044;-79
2022/10/28 03:56:07;;;;;;;17.65;11.05;;;14.00;99.90;;;;;;5054734;28;20032;-78
2022/10/28 03:58:33;;;;;;;17.95;11.05;;;14.00;99.90;;;;;;5077523;28;20064;-79
2022/10/28 04:00:58;;;;;;;20.33;11.98;;;14.00;99.90;;;;;;5048245;28;20122;-78
2022/10/28 04:03:25;;;;;;;19.17;11.88;;;14.00;99.90;;;;;;5052611;28;20527;-79
2022/10/28 04:05:50;;;;;;;17.23;11.43;;;14.00;99.90;;;;;;5055379;28;20048;-79
2022/10/28 04:08:17;;;;;;;18.67;11.50;;;13.90;99.90;;;;;;5081362;28;20082;-78
2022/10/28 04:10:44;;;;;;;15.60;11.65;;;14.00;99.90;;;;;;5068311;28;21697;-79
2022/10/28 04:13:10;;;;;;;18.83;12.05;;;13.90;99.90;;;;;;5054726;28;20048;-78
2022/10/28 04:15:35;;;;;;;18.63;11.25;;;13.90;99.90;;;;;;5076940;28;20052;-79
2022/10/28 04:18:02;;;;;;;20.48;11.63;;;13.90;99.90;;;;;;5047893;28;20403;-78
2022/10/28 04:20:28;;;;;;;18.40;12.43;;;14.00;99.90;;;;;;5047339;28;20044;-79
2022/10/28 04:22:53;;;;;;;17.02;11.95;;;14.00;99.90;;;;;;5075467;28;20044;-78
2022/10/28 04:25:24;;;;;;;21.65;13.07;;;14.00;99.90;;;;;;5055621;28;20037;-78
2022/10/28 04:27:50;;;;;;;18.30;12.15;;;14.00;99.90;;;;;;5070306;28;20132;-78
2022/10/28 04:30:15;;;;;;;18.73;11.32;;;14.00;99.90;;;;;;5048526;28;20048;-78
2022/10/28 04:32:42;;;;;;;20.42;12.13;;;14.00;99.90;;;;;;5066004;28;20040;-79
2022/10/28 04:35:10;;;;;;;19.80;11.68;;;14.00;99.90;;;;;;5050631;28;20048;-79
2022/10/28 04:37:35;;;;;;;;;;;14.10;99.90;;;;;;5059456;28;20055;-79
2022/10/28 04:40:01;;;;;;;21.08;12.30;;;14.00;99.90;;;;;;5072271;28;19927;-78
2022/10/28 04:42:26;;;;;;;19.90;11.95;;;14.00;99.90;;;;;;5047510;28;20080;-78
2022/10/28 04:44:52;;;;;;;15.77;11.65;;;14.00;99.90;;;;;;5070657;28;20040;-79
2022/10/28 04:47:18;;;;;;;17.70;11.65;;;14.10;99.90;;;;;;5077524;28;20498;-78
2022/10/28 04:49:43;;;;;;;15.68;11.68;;;14.10;99.90;;;;;;5072550;28;20654;-79
2022/10/28 04:52:09;;;;;;;20.65;12.15;;;14.10;99.90;;;;;;5083884;28;20047;-79
2022/10/28 04:54:35;;;;;;;17.73;11.10;;;14.10;99.90;;;;;;5059151;28;20483;-79
2022/10/28 04:57:01;;;;;;;16.35;11.27;;;14.20;99.90;;;;;;5078578;28;20055;-78
2022/10/28 04:59:26;;;;;;;17.33;11.50;;;14.10;99.90;;;;;;5073265;28;20036;-79
2022/10/28 05:01:52;;;;;;;21.75;12.10;;;14.10;99.90;;;;;;5050982;28;20045;-79
2022/10/28 05:04:18;;;;;;;21.13;11.88;;;14.10;99.90;;;;;;5082491;28;20044;-79
2022/10/28 05:06:43;;;;;;;19.92;12.45;;;14.20;99.90;;;;;;5054017;28;20041;-79
2022/10/28 05:09:09;;;;;;;21.80;12.38;;;14.10;99.90;;;;;;5070042;28;20051;-78
2022/10/28 05:11:34;;;;;;;20.23;11.30;;;14.10;99.90;;;;;;5081176;28;20743;-79
2022/10/28 05:14:00;;;;;;;18.40;11.70;;;14.10;99.90;;;;;;5061330;28;20127;-78
2022/10/28 05:16:26;;;;;;;18.40;11.88;;;14.00;99.90;;;;;;5053322;28;20062;-78
2022/10/28 05:18:51;;;;;;;18.92;12.13;;;14.00;99.90;;;;;;5081934;28;20055;-78
2022/10/28 05:21:17;;;;;;;17.98;11.10;;;14.00;99.90;;;;;;5073939;28;20131;-78
2022/10/28 05:23:42;;;;;;;21.75;12.45;;;14.00;99.90;;;;;;5090443;28;20395;-79
2022/10/28 05:26:08;;;;;;;18.10;12.10;;;14.10;99.90;;;;;;5062744;28;20698;-79
2022/10/28 05:28:34;;;;;;;19.38;10.80;;;14.00;99.90;;;;;;5070529;28;20059;-79
2022/10/28 05:31:00;;;;;;;19.13;12.70;;;14.10;99.90;;;;;;5071653;28;20040;-78
2022/10/28 05:33:25;;;;;;;18.58;11.68;;;14.00;99.90;;;;;;5080660;28;20048;-78
2022/10/28 05:35:51;;;;;;;21.88;12.05;;;14.10;99.90;;;;;;5074704;28;20527;-78
2022/10/28 05:38:17;;;;;;;18.20;11.27;;;14.00;99.90;;;;;;5066611;28;20106;-78
2022/10/28 05:40:42;;;;;;;15.20;11.30;;;14.00;99.90;;;;;;5056479;28;20067;-78
2022/10/28 05:43:09;;;;;;;19.02;11.30;;;14.00;99.90;;;;;;5077717;28;20040;-78
2022/10/28 05:45:34;;;;;;;19.02;12.32;;;14.00;99.90;;;;;;5077236;28;20040;-78
2022/10/28 05:48:00;;;;;;;22.52;11.70;;;14.00;99.90;;;;;;5081555;28;20375;-79
2022/10/28 05:50:27;;;;;;;18.13;11.50;;;14.00;99.90;;;;;;5056698;28;20048;-79
2022/10/28 05:52:54;;;;;;;20.60;12.35;;;14.00;99.90;;;;;;5078081;28;20039;-78
2022/10/28 05:55:21;;;;;;;19.63;11.98;;;14.00;99.90;;;;;;5064733;28;20399;-79
2022/10/28 05:57:49;;;;;;;20.77;11.65;;;14.00;99.90;;;;;;5056884;28;20044;-79
2022/10/28 06:00:15;;;;;;;;;;;14.00;99.90;;;;;;5063965;28;20052;-79
2022/10/28 06:02:41;;;;;;;19.85;11.25;;;13.90;99.90;;;;;;5072267;28;19959;-79
2022/10/28 06:05:08;;;;;;;16.13;11.10;;;13.90;99.90;;;;;;5068420;28;20073;-78
2022/10/28 06:07:34;;;;;;;15.85;11.55;;;13.90;99.90;;;;;;5051195;28;20041;-79
2022/10/28 06:10:00;;;;;;;20.92;11.60;;;13.90;99.90;;;;;;5054188;28;20044;-78
2022/10/28 06:12:26;;;;;;;17.03;10.53;;;13.90;99.90;;;;;;5081305;28;20086;-78
2022/10/28 06:14:52;;;;;;;18.63;12.23;;;13.80;99.90;;;;;;5077256;28;20044;-79
2022/10/28 06:17:17;;;;;;;18.88;11.20;;;13.80;99.90;;;;;;5051612;28;20072;-82
2022/10/28 06:19:43;;;;;;;17.20;11.25;;;13.80;99.90;;;;;;5069804;28;20032;-81
2022/10/28 06:22:08;;;;;;;15.95;11.20;;;13.80;99.90;;;;;;5069159;28;20531;-80
2022/10/28 06:24:34;;;;;;;20.13;10.77;;;13.80;99.90;;;;;;5074148;28;20101;-81
2022/10/28 06:27:00;;;;;;;16.70;11.48;;;13.80;99.90;;;;;;5059938;28;20060;-80
2022/10/28 06:29:26;;;;;;;22.95;10.93;;;13.80;99.90;;;;;;5075343;28;20559;-81
2022/10/28 06:31:51;;;;;;;19.88;11.18;;;13.80;99.90;;;;;;5054054;28;20125;-81
2022/10/28 06:34:17;;;;;;;20.13;11.60;;;13.70;99.90;;;;;;5075043;28;20087;-81
2022/10/28 06:36:43;;;;;;;20.90;11.80;;;13.60;99.90;;;;;;5078358;28;20044;-81
2022/10/28 06:39:09;;;;;;;20.52;11.93;;;13.80;99.90;;;;;;5076922;28;20487;-81
2022/10/28 06:41:37;;;;;;;22.25;12.52;;;13.70;99.90;;;;;;5064775;28;20044;-81
2022/10/28 06:44:03;;;;;;;22.23;11.88;;;13.70;99.90;;;;;;5064367;28;20560;-81
2022/10/28 06:46:29;;;;;;;17.63;11.48;;;13.70;99.90;;;;;;5079225;28;20044;-80
2022/10/28 06:48:55;;;;;;;21.40;12.50;;;13.70;99.90;;;;;;5052418;28;20050;-81
2022/10/28 06:51:22;;;;;;;24.60;12.57;;;13.70;99.90;;;;;;5072732;28;20111;-80
2022/10/28 06:53:51;;;;;;;22.15;11.73;;;13.60;99.90;;;;;;5083005;28;20040;-81
2022/10/28 06:56:18;;;;;;;15.57;11.43;;;13.70;99.90;;;;;;5064366;28;20054;-81
2022/10/28 06:58:51;;;;;;;19.10;11.60;;;13.70;99.90;;;;;;5076455;28;20040;-81
2022/10/28 07:01:19;;;;;;;19.52;12.07;;;13.70;99.90;;;;;;5067566;28;20340;-80
2022/10/28 07:03:45;;;;;;;21.33;11.88;;;13.70;99.90;;;;;;5066473;28;20488;-80
2022/10/28 07:06:11;;;;;;;21.08;12.32;;;13.70;99.90;;;;;;5065696;28;20056;-79
2022/10/28 07:08:37;;;;;;;19.88;12.60;;;13.80;99.90;;;;;;5067051;28;20052;-80
2022/10/28 07:11:03;;;;;;;20.23;11.65;;;13.80;99.90;;;;;;5073406;28;20033;-81
2022/10/28 07:13:29;;;;;;;16.50;11.70;;;13.70;99.90;;;;;;5066478;28;20110;-81
2022/10/28 07:15:57;;;;;;;19.83;11.77;;;13.80;99.90;;;;;;5063994;28;20048;-80
2022/10/28 07:18:25;;;;;;;25.52;11.50;;;13.80;99.90;;;;;;5073924;28;20064;-81
2022/10/28 07:20:51;;;;;;;17.55;11.07;;;13.80;99.90;;;;;;5060106;28;20052;-81
2022/10/28 07:23:17;;;;;;;17.85;11.65;;;13.90;99.90;;;;;;5067968;28;20381;-81
2022/10/28 07:25:44;;;;;;;20.75;11.07;;;13.90;99.90;;;;;;5076639;28;20032;-81
2022/10/28 07:28:10;;;;;;;19.13;11.57;;;13.90;99.90;;;;;;5080058;28;20123;-81
2022/10/28 07:30:36;;;;;;;21.65;11.88;;;13.90;99.90;;;;;;5058566;28;20559;-81
2022/10/28 07:33:06;;;;;;;16.17;11.20;;;14.00;99.90;;;;;;5077836;28;20090;-80
2022/10/28 07:35:32;;;;;;;21.10;11.68;;;14.10;99.90;;;;;;5058040;28;20040;-80
2022/10/28 07:37:57;;;;;;;19.73;11.85;;;14.10;99.90;;;;;;5072301;28;20048;-81
2022/10/28 07:40:24;;;;;;;20.83;13.63;;;14.10;99.90;;;;;;5067033;28;20033;-84
2022/10/28 07:42:50;;;;;;;23.77;12.77;;;14.20;99.90;;;;;;5078774;28;20044;-82
2022/10/28 07:45:16;;;;;;;21.13;12.57;;;14.30;99.90;;;;;;5075852;28;20113;-81
2022/10/28 07:47:42;;;;;;;22.27;13.07;;;14.30;99.90;;;;;;5055669;28;20070;-80
2022/10/28 07:50:08;;;;;;;23.70;13.00;;;14.40;99.90;;;;;;5073791;28;20047;-80
2022/10/28 07:52:35;;;;;;;22.33;12.17;;;14.50;99.90;;;;;;5074946;28;20130;-77
2022/10/28 07:55:01;;;;;;;21.33;11.95;;;14.60;99.90;;;;;;5075127;28;20125;-77
2022/10/28 07:57:27;;;;;;;22.02;12.52;;;14.60;99.90;;;;;;5079119;28;20072;-78
2022/10/28 07:59:52;;;;;;;19.33;12.60;;;14.70;99.90;;;;;;5072242;28;20707;-81
2022/10/28 08:02:21;;;;;;;23.45;12.32;;;14.80;99.90;;;;;;5070119;28;20170;-81
2022/10/28 08:04:47;;;;;;;21.13;11.32;;;14.80;99.90;;;;;;5054058;28;20047;-79
2022/10/28 08:07:13;;;;;;;24.45;11.43;;;14.90;99.90;;;;;;5074811;28;20048;-80
2022/10/28 08:09:40;;;;;;;16.58;9.63;;;15.00;99.90;;;;;;5071602;28;20422;-83
2022/10/28 08:12:07;;;;;;;20.27;11.63;;;15.10;99.90;;;;;;5057125;28;20519;-81
2022/10/28 08:14:33;;;;;;;21.52;11.13;;;15.10;99.90;;;;;;5052777;28;20131;-79
2022/10/28 08:16:59;;;;;;;23.33;12.30;;;15.20;99.90;;;;;;5054377;28;20044;-78
2022/10/28 08:19:25;;;;;;;16.42;10.13;;;15.30;99.90;;;;;;5067183;28;20044;-83
2022/10/28 08:21:50;;;;;;;20.20;11.25;;;15.30;99.90;;;;;;5069385;28;20044;-80
2022/10/28 08:24:16;;;;;;;19.83;10.52;;;15.40;99.90;;;;;;5075498;28;20372;-79
2022/10/28 08:26:41;;;;;;;17.10;10.23;;;15.50;99.90;;;;;;5073941;28;20510;-78
2022/10/28 08:29:10;;;;;;;22.73;10.90;;;15.60;99.90;;;;;;5083474;28;20048;-85
2022/10/28 08:31:37;;;;;;;24.40;9.93;;;15.60;99.90;;;;;;5073496;28;20040;-77
2022/10/28 08:34:02;;;;;;;22.10;10.50;;;15.70;99.90;;;;;;5078016;28;20040;-79
2022/10/28 08:36:28;;;;;;;19.23;9.70;;;15.80;99.90;;;;;;5057362;28;20424;-79
2022/10/28 08:38:54;;;;;;;20.33;9.10;;;15.90;99.90;;;;;;5068919;28;20048;-79
2022/10/28 08:41:50;;;;;;;20.70;9.48;;;16.00;99.90;;;;;;5054851;28;20381;-78
2022/10/28 08:44:29;;;;;;;19.90;10.20;;;16.10;99.90;;;;;;5070161;28;20403;-78
2022/10/28 08:47:32;;;;;;;17.85;9.18;;;16.20;99.90;;;;;;5053460;28;20109;-77
2022/10/28 08:50:03;;;;;;;21.75;9.05;;;16.30;99.90;;;;;;5077028;28;20106;-79
2022/10/28 08:52:44;;;;;;;19.25;9.02;;;16.30;99.90;;;;;;5053073;28;20074;-76
2022/10/28 08:55:15;;;;;;;22.08;9.27;;;16.40;99.90;;;;;;5052877;28;20422;-79
2022/10/28 08:57:53;;;;;;;17.98;8.13;;;16.40;99.90;;;;;;5064943;28;20036;-81
2022/10/28 09:00:25;;;;;;;18.42;9.52;;;16.60;99.90;;;;;;5075660;28;20483;-81
2022/10/28 09:03:10;;;;;;;20.35;9.13;;;16.60;99.90;;;;;;5059360;28;20043;-79
2022/10/28 09:05:36;;;;;;;18.15;7.95;;;16.80;99.90;;;;;;5079491;28;20418;-82
2022/10/28 09:08:03;;;;;;;15.47;8.07;;;16.80;99.90;;;;;;5081698;28;20052;-84
2022/10/28 09:10:34;;;;;;;19.27;7.57;;;16.90;99.90;;;;;;5063658;28;20637;-81
2022/10/28 09:13:15;;;;;;;14.77;6.95;;;17.10;99.90;;;;;;5086626;28;20041;-83
2022/10/28 09:16:39;;;;;;;18.08;7.45;;;17.20;99.90;;;;;;5057233;28;20395;-82
2022/10/28 09:19:47;;;;;;;17.98;8.70;;;17.30;99.90;;;;;;4983500;28;20605;-81
2022/10/28 09:22:25;;;;;;;15.68;7.18;;;17.40;99.90;;;;;;5067449;28;20048;-80
2022/10/28 09:25:00;;;;;;;15.95;7.75;;;17.50;99.90;;;;;;5066995;28;20127;-80
2022/10/28 09:27:40;;;;;;;14.40;7.00;;;17.60;99.90;;;;;;5047738;28;20065;-84
2022/10/28 09:30:26;;;;;;;15.88;6.80;;;17.60;99.90;;;;;;5066962;28;20040;-79
2022/10/28 09:33:17;;;;;;;21.88;6.90;;;17.70;99.90;;;;;;5069303;28;20048;-79
2022/10/28 09:35:46;;;;;;;17.73;7.18;;;17.80;99.90;;;;;;5073624;28;20058;-81
2022/10/28 09:38:28;;;;;;;15.93;7.00;;;17.90;99.90;;;;;;5082580;28;20044;-82
2022/10/28 09:41:11;;;;;;;17.83;7.13;;;17.90;99.90;;;;;;5055996;28;20067;-83
2022/10/28 09:43:46;;;;;;;17.20;7.25;;;17.90;99.90;;;;;;5069481;28;20040;-80
2022/10/28 09:46:15;;;;;;;20.88;7.22;;;17.90;99.90;;;;;;5070739;28;20178;-78
2022/10/28 09:48:49;;;;;;;15.10;7.55;;;18.00;99.90;;;;;;5056042;28;20048;-84
2022/10/28 09:51:29;;;;;;;16.63;7.10;;;18.00;99.90;;;;;;5070248;28;20061;-80
2022/10/28 09:53:59;;;;;;;22.17;7.10;;;18.00;99.90;;;;;;5078598;28;20044;-77
2022/10/28 09:56:27;;;;;;;16.05;7.03;;;18.00;99.90;;;;;;5052557;28;20059;-83
2022/10/28 09:58:56;;;;;;;14.07;7.43;;;18.00;99.90;;;;;;5079375;28;20399;-75
2022/10/28 10:01:22;;;;;;;19.73;7.30;;;18.10;99.90;;;;;;5068651;28;20093;-76
2022/10/28 10:03:50;;;;;;;18.73;7.60;;;18.10;99.90;;;;;;5110568;28;20075;-76
2022/10/28 10:06:25;;;;;;;14.70;7.40;;;18.10;99.90;;;;;;5070137;28;20182;-77
2022/10/28 10:08:54;;;;;;;22.90;7.38;;;18.20;99.90;;;;;;5097310;28;20058;-77
2022/10/28 10:11:39;;;;;;;17.65;7.45;;;18.10;99.90;;;;;;5070313;28;20082;-77
2022/10/28 10:14:10;;;;;;;20.17;7.35;;;18.20;99.90;;;;;;5066072;28;20048;-77
2022/10/28 10:16:48;;;;;;;19.70;7.78;;;18.20;99.90;;;;;;5080386;28;20478;-86
2022/10/28 10:19:14;;;;;;;15.32;7.60;;;18.30;99.90;;;;;;5067346;28;20048;-76
2022/10/28 10:21:48;;;;;;;17.40;7.45;;;18.20;99.90;;;;;;5058500;28;20039;-80
2022/10/28 10:24:33;;;;;;;15.82;7.47;;;18.30;99.90;;;;;;5072581;28;20040;-75
2022/10/28 10:27:16;;;;;;;20.48;7.50;;;18.30;99.90;;;;;;5070432;28;20135;-74
2022/10/28 10:29:50;;;;;;;19.20;8.27;;;18.40;99.90;;;;;;5060726;28;20742;-74
2022/10/28 10:32:21;;;;;;;16.23;7.45;;;18.40;99.90;;;;;;5080463;28;20044;-74
2022/10/28 10:35:05;;;;;;;16.20;7.68;;;18.40;99.90;;;;;;5082982;28;20055;-75
2022/10/28 10:37:34;;;;;;;16.02;7.68;;;18.50;99.90;;;;;;5053513;28;20052;-76
2022/10/28 10:40:17;;;;;;;21.67;8.80;;;18.50;99.90;;;;;;5081368;28;20051;-74
2022/10/28 10:42:44;;;;;;;16.83;7.30;;;18.60;99.90;;;;;;5052893;28;20935;-77
2022/10/28 10:45:21;;;;;;;18.05;7.13;;;18.60;99.90;;;;;;5070130;28;20139;-75
2022/10/28 10:47:47;;;;;;;19.23;7.30;;;18.70;99.90;;;;;;5077720;28;20048;-75
2022/10/28 10:50:43;;;;;;;24.48;7.43;;;18.70;99.90;;;;;;5065432;28;20439;-76
2022/10/28 10:53:27;;;;;;;17.15;7.32;;;18.80;99.90;;;;;;5034908;28;20061;-76
2022/10/28 10:56:00;;;;;;;19.52;6.85;;;18.90;99.90;;;;;;5093495;28;20489;-74
2022/10/28 10:58:29;;;;;;;20.58;6.95;;;19.00;99.90;;;;;;5055204;28;20044;-74
2022/10/28 11:00:58;;;;;;;17.55;7.53;;;19.10;99.90;;;;;;5060614;28;20039;-75
2022/10/28 11:03:37;;;;;;;17.02;7.22;;;19.10;99.90;;;;;;5079455;28;20059;-75
2022/10/28 11:06:06;;;;;;;17.42;7.28;;;19.20;99.90;;;;;;5083975;28;20093;-75
2022/10/28 11:08:42;;;;;;;19.83;6.93;;;19.20;99.90;;;;;;5097902;28;20112;-77
2022/10/28 11:11:21;;;;;;;20.00;6.80;;;19.20;99.90;;;;;;5066555;28;20190;-76
2022/10/28 11:28:00;;;;;;;21.33;7.68;;;19.20;99.90;;;;;;5092155;27;20411;-74
2022/10/28 11:30:52;;;;;;;19.00;6.90;;;19.60;99.90;;;;;;5080991;28;20056;-73
2022/10/28 11:33:35;;;;;;;19.20;6.90;;;19.60;99.90;;;;;;5088244;28;20047;-74
2022/10/28 11:36:28;;;;;;;16.38;7.13;;;19.50;99.90;;;;;;5083072;28;21972;-73
2022/10/28 11:39:21;;;;;;;19.60;7.20;;;19.50;99.90;;;;;;5068440;28;20060;-74
2022/10/28 11:41:55;;;;;;;21.42;7.45;;;19.50;99.90;;;;;;5076762;28;20036;-74
2022/10/28 11:44:32;;;;;;;17.27;6.95;;;19.50;99.90;;;;;;5086451;28;20386;-71
2022/10/28 11:47:33;;;;;;;15.10;6.68;;;19.60;99.90;;;;;;5081827;28;20044;-71
2022/10/28 11:50:17;;;;;;;21.27;7.40;;;19.70;99.90;;;;;;5008568;28;20053;-71
2022/10/28 11:52:55;;;;;;;19.13;7.32;;;19.70;99.90;;;;;;5082180;28;20044;-72
2022/10/28 11:55:35;;;;;;;18.70;7.43;;;19.70;99.90;;;;;;5078594;28;20044;-71
2022/10/28 11:58:32;;;;;;;20.10;6.90;;;19.70;99.90;;;;;;5080532;28;20044;-71
2022/10/28 12:01:25;;;;;;;19.25;6.75;;;19.80;99.90;;;;;;5067797;28;20044;-71
2022/10/28 12:04:02;;;;;;;17.58;6.78;;;19.90;99.90;;;;;;5070487;28;20049;-76
2022/10/28 12:06:54;;;;;;;19.45;7.07;;;19.90;99.90;;;;;;5079683;28;20052;-80
2022/10/28 12:09:40;;;;;;;24.33;7.28;;;19.90;99.90;;;;;;5076111;28;20044;-87
2022/10/28 12:12:09;;;;;;;19.50;7.10;;;20.00;99.90;;;;;;5083408;28;20485;-85
2022/10/28 12:14:41;;;;;;;19.00;6.88;;;20.00;99.90;;;;;;5080792;28;20048;-88
2022/10/28 12:17:15;;;;;;;14.52;6.70;;;20.00;99.90;;;;;;5085317;28;20154;-87
2022/10/28 12:19:57;;;;;;;20.20;6.63;;;20.10;99.90;;;;;;5074771;28;20136;-77
2022/10/28 12:22:56;;;;;;;18.70;6.22;;;20.10;99.90;;;;;;5119879;27;20545;-76
2022/10/28 12:25:26;;;;;;;15.75;6.55;;;20.20;99.90;;;;;;5073746;28;20044;-76
2022/10/28 12:27:57;;;;;;;19.83;6.65;;;20.20;99.90;;;;;;5072057;28;20546;-77
2022/10/28 12:30:29;;;;;;;18.85;6.50;;;20.20;99.90;;;;;;5072841;28;20169;-77
2022/10/28 12:33:00;;;;;;;19.83;6.60;;;20.20;99.90;;;;;;5071201;28;20044;-80
2022/10/28 12:35:36;;;;;;;16.70;7.30;;;20.20;99.90;;;;;;5072859;28;20040;-80
2022/10/28 12:38:18;;;;;;;18.45;7.07;;;20.30;99.90;;;;;;5063042;28;20040;-78
2022/10/28 12:41:35;;;;;;;23.45;7.10;;;20.30;99.90;;;;;;5074832;28;20040;-77
2022/10/28 12:44:17;;;;;;;18.33;6.50;;;20.40;99.90;;;;;;5069854;28;20044;-75
2022/10/28 12:47:04;;;;;;;20.23;6.97;;;20.40;99.90;;;;;;5068888;28;20064;-75
2022/10/28 12:49:53;;;;;;;21.73;6.80;;;20.40;99.90;;;;;;5070247;28;20044;-75
2022/10/28 12:52:54;;;;;;;17.30;6.35;;;20.50;99.90;;;;;;5064957;28;20629;-76
2022/10/28 12:55:43;;;;;;;20.75;6.30;;;20.50;99.90;;;;;;5048659;28;20421;-88
2022/10/28 12:58:22;;;;;;;21.65;7.00;;;20.50;99.90;;;;;;5104318;27;20045;-84
2022/10/28 13:00:56;;;;;;;18.05;6.40;;;20.50;99.90;;;;;;5070743;28;20502;-82
2022/10/28 13:03:22;;;;;;;19.88;7.00;;;20.40;99.90;;;;;;5106223;27;20040;-84
2022/10/28 13:06:21;;;;;;;18.15;6.20;;;20.40;99.90;;;;;;5070408;28;20048;-80
2022/10/28 13:09:05;;;;;;;19.15;6.13;;;20.40;99.90;;;;;;5061491;28;20431;-82
2022/10/28 13:11:46;;;;;;;17.00;6.65;;;20.30;99.90;;;;;;5069778;28;20570;-84